Pinehurst, Washington
Current Conditions -  °F | °C
As of 4:53 PM on Friday 28 Nov 2014 (Local Time) from KPAE Reporting Station
Overcast Overcast  
Wind Chill: 32°   Ceiling: 3000
Heat Index: 36°   Visibility: 10mi
Dew Point: 33°   Wind: 5mph
Humidity: 89%   Direction: 120°ESE
Pressure: 29.46"   Gusts: NA
Location:  47.9451°N, 122.226°W
Report Text: KPAE 290053Z 12004KT 10SM SCT022 BKN030 OVC038 02/01 A2946 RMK AO2 RAE38 SLP979 P0003 T00220006
Loading
Personal Weather Stations






























Interactive Weather Map New forecast layout! Learn more

10-Day Weather Forecast

Advertisements
Track Severe Weather on mobile